Time;durP1;ratioP1;P1;durP2;ratioP2;P2;SDS_P1;SDS_P2;PMS_P1;PMS_P2;Temp;Humidity;BMP_temperature;BMP_pressure;BME280_temperature;BME280_humidity;BME280_pressure;Samples;Min_cycle;Max_cycle;Signal;HPM_P1;HPM_P2
2021/09/05 00:00:43;;;;;;;5.93;4.30;;;11.50;92.60;;;;;;2098619;28;20720;-59
2021/09/05 00:01:44;;;;;;;5.33;4.00;;;11.50;92.80;;;;;;2098082;28;20257;-74
2021/09/05 00:02:45;;;;;;;5.90;4.15;;;11.50;92.50;;;;;;2098116;28;20168;-74
2021/09/05 00:03:46;;;;;;;5.17;3.70;;;11.50;92.50;;;;;;2097305;28;20187;-73
2021/09/05 00:04:47;;;;;;;7.10;4.80;;;11.50;92.50;;;;;;2089417;28;20215;-75
2021/09/05 00:05:48;;;;;;;9.63;4.83;;;11.40;92.40;;;;;;2098098;28;20201;-74
2021/09/05 00:06:49;;;;;;;8.63;4.65;;;11.40;92.40;;;;;;2098194;28;20429;-76
2021/09/05 00:07:49;;;;;;;7.93;4.40;;;11.50;92.30;;;;;;2098135;28;20171;-61
2021/09/05 00:08:50;;;;;;;4.87;3.93;;;11.50;92.30;;;;;;2097519;28;20531;-66
2021/09/05 00:09:50;;;;;;;5.60;4.00;;;11.50;92.30;;;;;;2098254;28;20183;-63
2021/09/05 00:10:51;;;;;;;6.83;4.87;;;11.50;92.20;;;;;;2098779;28;20186;-62
2021/09/05 00:11:52;;;;;;;7.30;4.13;;;11.50;92.10;;;;;;2098593;28;20203;-62
2021/09/05 00:12:53;;;;;;;6.50;4.70;;;11.50;92.10;;;;;;2098924;28;20537;-66
2021/09/05 00:13:54;;;;;;;5.17;3.97;;;11.50;92.20;;;;;;2098693;28;20178;-62
2021/09/05 00:14:54;;;;;;;5.67;4.37;;;11.50;92.20;;;;;;2098519;28;20174;-65
2021/09/05 00:15:55;;;;;;;6.30;4.10;;;11.40;92.10;;;;;;2098487;28;20995;-65
2021/09/05 00:16:56;;;;;;;5.50;4.17;;;11.40;92.10;;;;;;2098857;28;20215;-64
2021/09/05 00:17:56;;;;;;;5.73;4.03;;;11.40;92.20;;;;;;2098663;28;20249;-66
2021/09/05 00:18:58;;;;;;;10.10;4.57;;;11.40;92.30;;;;;;2098359;28;20539;-64
2021/09/05 00:19:58;;;;;;;7.57;4.32;;;11.40;92.30;;;;;;2098551;28;20176;-66
2021/09/05 00:20:59;;;;;;;5.83;4.00;;;11.40;92.40;;;;;;2098255;28;20172;-64
2021/09/05 00:22:01;;;;;;;6.00;4.30;;;11.40;92.40;;;;;;2098407;28;20204;-64
2021/09/05 00:23:03;;;;;;;5.70;3.83;;;11.30;92.40;;;;;;2097844;28;20187;-64
2021/09/05 00:24:04;;;;;;;5.10;3.60;;;11.30;92.40;;;;;;2098169;28;20180;-64
2021/09/05 00:25:06;;;;;;;5.27;4.13;;;11.30;92.40;;;;;;2098407;28;20179;-64
2021/09/05 00:26:08;;;;;;;6.82;4.05;;;11.30;92.40;;;;;;2098468;28;20487;-64
2021/09/05 00:27:08;;;;;;;6.50;4.32;;;11.30;92.40;;;;;;2098476;28;20221;-64
2021/09/05 00:28:09;;;;;;;4.63;3.70;;;11.30;92.40;;;;;;2098573;28;20178;-64
2021/09/05 00:29:10;;;;;;;6.47;4.13;;;11.30;92.40;;;;;;2098279;28;20183;-64
2021/09/05 00:30:11;;;;;;;8.07;4.47;;;11.30;92.40;;;;;;2098587;28;20225;-64
2021/09/05 00:31:11;;;;;;;6.53;4.27;;;11.30;92.40;;;;;;2098165;28;20176;-64
2021/09/05 00:32:12;;;;;;;6.47;4.10;;;11.30;92.50;;;;;;2097114;28;20221;-64
2021/09/05 00:33:13;;;;;;;5.67;4.30;;;11.30;92.50;;;;;;2097041;28;20186;-65
2021/09/05 00:34:13;;;;;;;7.10;4.27;;;11.30;92.50;;;;;;2098183;28;20655;-64
2021/09/05 00:35:14;;;;;;;5.50;3.90;;;11.30;92.40;;;;;;2098273;28;20190;-65
2021/09/05 00:36:15;;;;;;;5.95;4.28;;;11.30;92.40;;;;;;2098615;28;20682;-65
2021/09/05 00:37:16;;;;;;;7.13;4.03;;;11.30;92.50;;;;;;2098371;28;20183;-64
2021/09/05 00:38:17;;;;;;;6.10;4.45;;;11.30;92.50;;;;;;2098581;28;20204;-65
2021/09/05 00:39:17;;;;;;;6.40;4.20;;;11.30;92.50;;;;;;2098265;28;20184;-64
2021/09/05 00:40:18;;;;;;;8.17;4.07;;;11.30;92.50;;;;;;2098505;28;20701;-62
2021/09/05 00:41:19;;;;;;;6.00;3.93;;;11.30;92.40;;;;;;2098265;28;20249;-64
2021/09/05 00:42:26;;;;;;;5.03;3.30;;;11.30;92.40;;;;;;2098569;28;20422;-63
2021/09/05 00:43:26;;;;;;;5.50;3.83;;;11.20;92.50;;;;;;2097704;28;20179;-64
2021/09/05 00:44:27;;;;;;;6.93;4.07;;;11.30;92.60;;;;;;2097972;28;20192;-65
2021/09/05 00:45:28;;;;;;;5.90;4.07;;;11.30;92.70;;;;;;2097591;28;20179;-64
2021/09/05 00:46:31;;;;;;;5.80;3.80;;;11.20;92.70;;;;;;2097899;28;20259;-64
2021/09/05 00:47:31;;;;;;;5.30;4.25;;;11.20;92.70;;;;;;2098514;28;20176;-64
2021/09/05 00:48:32;;;;;;;6.47;4.10;;;11.20;92.70;;;;;;2098501;28;20180;-64
2021/09/05 00:49:33;;;;;;;6.63;4.30;;;11.20;92.70;;;;;;2098093;28;20254;-64
2021/09/05 00:50:35;;;;;;;6.47;4.53;;;11.20;92.60;;;;;;2098042;28;20199;-64
2021/09/05 00:51:41;;;;;;;5.07;4.40;;;11.20;92.70;;;;;;2097701;28;20223;-64
2021/09/05 00:52:42;;;;;;;5.53;3.97;;;11.20;92.60;;;;;;2097867;28;20179;-64
2021/09/05 00:53:45;;;;;;;5.07;4.20;;;11.20;92.60;;;;;;2098336;28;20719;-63
2021/09/05 00:54:46;;;;;;;6.15;4.22;;;11.20;92.60;;;;;;2098403;28;20228;-65
2021/09/05 00:55:47;;;;;;;6.25;4.53;;;11.20;92.60;;;;;;2098282;28;20179;-64
2021/09/05 00:56:48;;;;;;;6.00;4.23;;;11.20;92.60;;;;;;2098349;28;20184;-65
2021/09/05 00:57:53;;;;;;;6.73;3.97;;;11.20;92.60;;;;;;2098234;28;20179;-64
2021/09/05 00:58:55;;;;;;;7.53;4.65;;;11.20;92.60;;;;;;2098142;28;20191;-62
2021/09/05 00:59:55;;;;;;;6.50;4.82;;;11.20;92.70;;;;;;2098427;28;20229;-64
2021/09/05 01:00:58;;;;;;;5.77;4.20;;;11.20;92.80;;;;;;2098307;28;20248;-65
2021/09/05 01:01:58;;;;;;;7.10;4.47;;;11.20;92.80;;;;;;2098215;28;20564;-64
2021/09/05 01:02:59;;;;;;;5.27;4.10;;;11.20;92.70;;;;;;2098303;28;20183;-64
2021/09/05 01:04:01;;;;;;;5.47;3.80;;;11.20;92.70;;;;;;2098254;28;20263;-64
2021/09/05 01:05:01;;;;;;;5.68;4.35;;;11.20;92.80;;;;;;2098277;28;20172;-63
2021/09/05 01:06:02;;;;;;;8.63;4.40;;;11.10;92.70;;;;;;2098148;28;20172;-64
2021/09/05 01:07:03;;;;;;;6.20;4.22;;;11.20;92.70;;;;;;2098258;28;20178;-64
2021/09/05 01:08:05;;;;;;;7.93;4.45;;;11.20;92.70;;;;;;2097658;28;20172;-63
2021/09/05 01:09:09;;;;;;;5.80;3.85;;;11.20;92.60;;;;;;2097402;28;20180;-64
2021/09/05 01:10:13;;;;;;;6.05;3.90;;;11.20;92.60;;;;;;2098148;28;20187;-65
2021/09/05 01:11:18;;;;;;;6.32;3.95;;;11.20;92.60;;;;;;2098152;28;20574;-64
2021/09/05 01:12:19;;;;;;;5.43;4.50;;;11.20;92.70;;;;;;2098116;28;20194;-64
2021/09/05 01:13:19;;;;;;;6.75;4.00;;;11.20;92.60;;;;;;2098276;28;20579;-64
2021/09/05 01:14:20;;;;;;;5.37;3.50;;;11.10;92.60;;;;;;2098207;28;20190;-64
2021/09/05 01:15:21;;;;;;;5.95;4.43;;;11.10;92.60;;;;;;2089290;28;20690;-64
2021/09/05 01:16:31;;;;;;;5.33;3.90;;;11.10;92.60;;;;;;2089458;28;20180;-63
2021/09/05 01:17:39;;;;;;;8.25;4.28;;;11.10;92.70;;;;;;2097691;28;20170;-64
2021/09/05 01:18:39;;;;;;;10.85;4.72;;;11.10;92.80;;;;;;2090320;28;20165;-62
2021/09/05 01:19:40;;;;;;;7.90;4.47;;;11.10;92.90;;;;;;2097430;28;20626;-65
2021/09/05 01:20:41;;;;;;;5.90;3.93;;;11.10;92.90;;;;;;2098096;28;20210;-64
2021/09/05 01:21:44;;;;;;;6.97;4.13;;;11.10;92.70;;;;;;2098004;28;20239;-63
2021/09/05 01:22:45;;;;;;;8.02;4.60;;;11.10;92.70;;;;;;2098134;28;20171;-64
2021/09/05 01:23:46;;;;;;;5.30;4.17;;;11.10;92.70;;;;;;2098254;28;20188;-63
2021/09/05 01:24:48;;;;;;;7.30;4.35;;;11.10;92.80;;;;;;2098116;28;20175;-64
2021/09/05 01:25:49;;;;;;;6.10;4.50;;;11.00;92.80;;;;;;2098247;28;20201;-62
2021/09/05 01:26:52;;;;;;;6.70;4.47;;;11.00;93.00;;;;;;2098266;28;20184;-64
2021/09/05 01:27:53;;;;;;;6.93;4.72;;;11.00;93.10;;;;;;2098186;28;20179;-63
2021/09/05 01:28:54;;;;;;;7.27;5.03;;;11.00;93.00;;;;;;2097934;28;20546;-64
2021/09/05 01:29:54;;;;;;;7.27;4.07;;;11.00;93.10;;;;;;2098100;28;20759;-65
2021/09/05 01:30:55;;;;;;;9.33;4.60;;;11.00;93.10;;;;;;2098243;28;20233;-64
2021/09/05 01:31:56;;;;;;;7.23;4.40;;;11.00;93.10;;;;;;2097461;28;20219;-64
2021/09/05 01:32:57;;;;;;;7.03;4.35;;;11.00;93.20;;;;;;2097552;28;20178;-64
2021/09/05 01:33:58;;;;;;;5.80;4.27;;;11.00;93.20;;;;;;2098155;28;20189;-64
2021/09/05 01:34:59;;;;;;;5.57;3.90;;;11.00;93.20;;;;;;2098226;28;20219;-64
2021/09/05 01:35:59;;;;;;;5.63;4.37;;;10.90;93.20;;;;;;2098111;28;20263;-65
2021/09/05 01:37:00;;;;;;;5.80;3.90;;;10.90;93.20;;;;;;2098147;28;20172;-64
2021/09/05 01:38:01;;;;;;;6.63;4.23;;;10.90;93.20;;;;;;2098173;28;20176;-65
2021/09/05 01:39:06;;;;;;;6.37;4.00;;;10.90;93.10;;;;;;2097179;28;20179;-63
2021/09/05 01:40:08;;;;;;;9.13;4.05;;;10.90;93.10;;;;;;2097646;28;20463;-65
2021/09/05 01:41:09;;;;;;;5.85;4.10;;;10.90;93.10;;;;;;2097954;28;20191;-66
2021/09/05 01:42:09;;;;;;;6.28;4.45;;;10.90;93.10;;;;;;2098021;28;20183;-62
2021/09/05 01:43:10;;;;;;;6.40;4.67;;;10.90;93.20;;;;;;2098068;28;20658;-64
2021/09/05 01:44:15;;;;;;;6.20;4.10;;;10.90;93.20;;;;;;2098058;28;20178;-64
2021/09/05 01:45:16;;;;;;;5.65;3.90;;;10.90;93.20;;;;;;2097630;28;20228;-64
2021/09/05 01:46:17;;;;;;;8.67;5.03;;;10.90;93.30;;;;;;2097550;28;20179;-64
2021/09/05 01:47:18;;;;;;;7.73;4.07;;;10.90;93.30;;;;;;2098256;28;20172;-64
2021/09/05 01:48:19;;;;;;;5.68;4.15;;;10.90;93.20;;;;;;2097949;28;20650;-64
2021/09/05 01:49:19;;;;;;;6.53;4.22;;;10.90;93.20;;;;;;2098058;28;20646;-64
2021/09/05 01:50:20;;;;;;;6.70;4.00;;;10.90;93.20;;;;;;2098052;28;20210;-63
2021/09/05 01:51:21;;;;;;;6.73;4.60;;;10.90;93.30;;;;;;2097919;28;20221;-64
2021/09/05 01:52:22;;;;;;;8.73;4.47;;;10.90;93.20;;;;;;2098019;28;20693;-63
2021/09/05 01:53:23;;;;;;;7.10;3.93;;;10.90;93.20;;;;;;2098118;28;20176;-64
2021/09/05 01:54:23;;;;;;;7.73;4.67;;;11.00;93.20;;;;;;2097972;28;20171;-64
2021/09/05 01:55:24;;;;;;;8.53;4.87;;;11.00;93.30;;;;;;2098065;28;20182;-64
2021/09/05 01:56:31;;;;;;;6.90;4.23;;;10.90;93.30;;;;;;2097426;28;20184;-64
2021/09/05 01:57:31;;;;;;;6.13;4.50;;;10.90;93.40;;;;;;2090206;28;20183;-63
2021/09/05 01:58:32;;;;;;;6.80;4.17;;;11.00;93.50;;;;;;2097523;28;20179;-65
2021/09/05 01:59:33;;;;;;;6.27;4.63;;;11.00;93.50;;;;;;2097828;28;20220;-61
2021/09/05 02:00:34;;;;;;;6.33;4.20;;;11.00;93.30;;;;;;2097952;28;20203;-64
2021/09/05 02:01:34;;;;;;;8.50;5.00;;;11.00;93.20;;;;;;2098027;28;20286;-64
2021/09/05 02:02:35;;;;;;;7.30;4.37;;;11.00;93.30;;;;;;2098365;28;20179;-64
2021/09/05 02:03:36;;;;;;;9.27;4.03;;;11.00;93.10;;;;;;2099765;28;20232;-65
2021/09/05 02:04:37;;;;;;;5.83;4.03;;;11.00;93.00;;;;;;2096436;28;20255;-64
2021/09/05 02:05:37;;;;;;;6.07;4.13;;;11.00;93.00;;;;;;2099583;28;20182;-63
2021/09/05 02:06:38;;;;;;;5.37;3.87;;;11.00;93.00;;;;;;2099569;28;20266;-64
2021/09/05 02:07:39;;;;;;;6.17;4.30;;;11.00;93.00;;;;;;2099761;28;20263;-64
2021/09/05 02:08:39;;;;;;;6.80;4.20;;;11.00;93.00;;;;;;2099643;28;20706;-62
2021/09/05 02:09:40;;;;;;;5.50;3.97;;;11.00;93.10;;;;;;2099470;28;20190;-65
2021/09/05 02:10:41;;;;;;;5.27;3.80;;;10.90;93.10;;;;;;2099665;28;20175;-64
2021/09/05 02:11:41;;;;;;;4.87;3.53;;;10.90;93.10;;;;;;2099682;28;20202;-64
2021/09/05 02:12:42;;;;;;;6.63;3.80;;;10.90;93.20;;;;;;2099711;28;20180;-64
2021/09/05 02:13:43;;;;;;;6.53;4.30;;;10.90;93.10;;;;;;2099661;28;20198;-65
2021/09/05 02:14:44;;;;;;;6.67;4.90;;;10.90;93.20;;;;;;2099529;28;20429;-64
2021/09/05 02:15:44;;;;;;;7.67;4.67;;;10.90;93.20;;;;;;2099710;28;20182;-65
2021/09/05 02:16:45;;;;;;;6.60;4.23;;;10.90;93.30;;;;;;2099594;28;20295;-63
2021/09/05 02:17:46;;;;;;;6.47;4.20;;;10.90;93.30;;;;;;2099695;28;20215;-65
2021/09/05 02:18:47;;;;;;;6.10;4.43;;;10.90;93.30;;;;;;2099618;28;20705;-65
2021/09/05 02:19:47;;;;;;;7.43;4.33;;;10.90;93.40;;;;;;2099523;28;20218;-62
2021/09/05 02:20:48;;;;;;;7.57;4.30;;;10.90;93.40;;;;;;2099431;28;20221;-65
2021/09/05 02:21:49;;;;;;;6.03;3.90;;;10.90;93.40;;;;;;2099416;28;20309;-65
2021/09/05 02:22:49;;;;;;;6.50;4.20;;;10.90;93.40;;;;;;2099410;28;20297;-63
2021/09/05 02:23:50;;;;;;;5.57;4.20;;;10.90;93.20;;;;;;2099562;28;20279;-65
2021/09/05 02:24:51;;;;;;;5.80;4.30;;;10.80;93.10;;;;;;2099510;28;20210;-64
2021/09/05 02:25:51;;;;;;;6.27;4.27;;;10.80;93.00;;;;;;2099593;28;20175;-64
2021/09/05 02:26:52;;;;;;;5.00;3.90;;;10.80;93.00;;;;;;2099479;28;20183;-64
2021/09/05 02:27:53;;;;;;;5.57;3.90;;;10.80;93.00;;;;;;2099595;28;20179;-63
2021/09/05 02:28:54;;;;;;;6.67;4.07;;;10.80;92.90;;;;;;2099256;28;20253;-64
2021/09/05 02:29:54;;;;;;;5.03;3.57;;;10.80;92.80;;;;;;2099518;28;20195;-63
2021/09/05 02:30:55;;;;;;;8.40;4.37;;;10.80;92.80;;;;;;2099466;28;20700;-63
2021/09/05 02:31:57;;;;;;;5.77;4.17;;;10.80;92.80;;;;;;2099367;28;20217;-64
2021/09/05 02:32:58;;;;;;;6.15;4.40;;;10.80;93.00;;;;;;2099553;28;20183;-64
2021/09/05 02:33:59;;;;;;;7.30;4.20;;;10.70;93.00;;;;;;2099403;28;20198;-64
2021/09/05 02:34:59;;;;;;;7.70;4.40;;;10.80;93.10;;;;;;2099436;28;20183;-64
2021/09/05 02:36:00;;;;;;;6.30;4.27;;;10.70;93.10;;;;;;2098751;28;20655;-63
2021/09/05 02:37:01;;;;;;;6.23;4.20;;;10.70;93.10;;;;;;2098791;28;20184;-63
2021/09/05 02:38:02;;;;;;;6.70;4.73;;;10.70;93.20;;;;;;2099486;28;20229;-65
2021/09/05 02:39:04;;;;;;;7.50;4.90;;;10.70;93.20;;;;;;2099070;28;20179;-65
2021/09/05 02:40:07;;;;;;;6.75;4.82;;;10.70;93.30;;;;;;2099352;28;20187;-64
2021/09/05 02:41:07;;;;;;;8.98;5.45;;;10.70;93.40;;;;;;2099218;28;20646;-65
2021/09/05 02:42:08;;;;;;;6.67;4.53;;;10.70;93.70;;;;;;2099322;28;20204;-64
2021/09/05 02:43:09;;;;;;;6.63;4.70;;;10.70;93.70;;;;;;2099490;28;20183;-66
2021/09/05 02:44:10;;;;;;;8.88;5.05;;;10.70;93.80;;;;;;2099237;28;20236;-64
2021/09/05 02:45:11;;;;;;;8.37;4.90;;;10.70;93.70;;;;;;2099529;28;20642;-64
2021/09/05 02:46:12;;;;;;;7.72;4.15;;;10.70;93.70;;;;;;2099445;28;20183;-65
2021/09/05 02:47:13;;;;;;;6.57;4.50;;;10.70;93.60;;;;;;2099356;28;20218;-64
2021/09/05 02:48:13;;;;;;;7.07;4.47;;;10.70;93.60;;;;;;2099353;28;20634;-65
2021/09/05 02:49:14;;;;;;;6.53;4.87;;;10.70;93.60;;;;;;2099149;28;20181;-65
2021/09/05 02:50:15;;;;;;;8.57;4.60;;;10.70;93.60;;;;;;2099294;28;20179;-63
2021/09/05 02:51:16;;;;;;;6.93;4.83;;;10.70;93.70;;;;;;2099339;28;20276;-65
2021/09/05 02:52:17;;;;;;;6.13;4.10;;;10.70;93.70;;;;;;2099300;28;20183;-64
2021/09/05 02:53:17;;;;;;;6.32;4.30;;;10.70;93.70;;;;;;2099224;28;20263;-63
2021/09/05 02:54:18;;;;;;;5.70;4.00;;;10.70;94.00;;;;;;2099258;28;20171;-62
2021/09/05 02:55:19;;;;;;;5.00;3.93;;;10.70;93.60;;;;;;2099304;28;20179;-64
2021/09/05 02:56:19;;;;;;;7.43;4.70;;;10.80;93.40;;;;;;2099261;28;20183;-64
2021/09/05 02:57:20;;;;;;;7.07;4.20;;;10.70;93.40;;;;;;2099286;28;20258;-64
2021/09/05 02:58:21;;;;;;;6.87;4.30;;;10.70;93.30;;;;;;2099155;28;20263;-64
2021/09/05 02:59:21;;;;;;;7.60;4.30;;;10.70;93.30;;;;;;2099111;28;20183;-65
2021/09/05 03:00:22;;;;;;;7.97;4.53;;;10.70;93.30;;;;;;2099289;28;20172;-64
2021/09/05 03:01:23;;;;;;;8.43;4.30;;;10.70;93.20;;;;;;2099086;28;20214;-64
2021/09/05 03:02:24;;;;;;;7.13;3.83;;;10.70;93.20;;;;;;2099307;28;20199;-65
2021/09/05 03:03:24;;;;;;;7.23;4.23;;;10.70;93.20;;;;;;2098741;28;20202;-64
2021/09/05 03:04:26;;;;;;;6.77;4.30;;;10.70;93.20;;;;;;2098435;28;20296;-62
2021/09/05 03:05:26;;;;;;;5.80;3.80;;;10.70;93.20;;;;;;2099171;28;20650;-64
2021/09/05 03:06:27;;;;;;;7.20;4.23;;;10.70;93.20;;;;;;2099180;28;20245;-64
2021/09/05 03:07:28;;;;;;;7.07;4.10;;;10.70;93.70;;;;;;2099129;28;20176;-65
2021/09/05 03:08:28;;;;;;;7.13;4.03;;;10.70;93.20;;;;;;2099293;28;20568;-63
2021/09/05 03:09:29;;;;;;;6.17;4.10;;;10.60;93.20;;;;;;2098936;28;20171;-64
2021/09/05 03:10:30;;;;;;;5.97;4.47;;;10.60;93.10;;;;;;2099141;28;20190;-66
2021/09/05 03:11:30;;;;;;;6.07;3.93;;;10.60;93.10;;;;;;2099073;28;20192;-64
2021/09/05 03:12:31;;;;;;;5.83;4.13;;;10.60;93.00;;;;;;2099215;28;20176;-64
2021/09/05 03:13:32;;;;;;;5.73;3.67;;;10.60;92.80;;;;;;2099096;28;20175;-65
2021/09/05 03:14:32;;;;;;;4.60;3.50;;;10.60;92.80;;;;;;2099266;28;20261;-64
2021/09/05 03:15:33;;;;;;;6.57;4.00;;;10.50;92.80;;;;;;2099077;28;20175;-64
2021/09/05 03:16:34;;;;;;;5.53;4.10;;;10.50;92.80;;;;;;2099265;28;20527;-64
2021/09/05 03:17:34;;;;;;;5.57;3.77;;;10.50;92.90;;;;;;2099116;28;20187;-65
2021/09/05 03:18:35;;;;;;;6.33;3.87;;;10.50;93.20;;;;;;2099230;28;20232;-63
2021/09/05 03:19:36;;;;;;;6.33;4.43;;;10.50;93.30;;;;;;2098836;28;20190;-65
2021/09/05 03:20:36;;;;;;;6.87;4.67;;;10.50;93.40;;;;;;2099175;28;20179;-64
2021/09/05 03:21:39;;;;;;;8.10;4.77;;;10.50;93.70;;;;;;2098926;28;20672;-63
2021/09/05 03:22:40;;;;;;;7.63;4.60;;;10.50;93.70;;;;;;2099077;28;20187;-64
2021/09/05 03:23:40;;;;;;;5.87;4.40;;;10.50;93.70;;;;;;2098864;28;20175;-65
2021/09/05 03:24:41;;;;;;;6.97;4.13;;;10.50;93.80;;;;;;2099220;28;20189;-63
2021/09/05 03:25:42;;;;;;;7.28;4.95;;;10.50;93.70;;;;;;2099070;28;20191;-63
2021/09/05 03:26:43;;;;;;;7.27;4.43;;;10.50;93.70;;;;;;2099137;28;20658;-64
2021/09/05 03:27:43;;;;;;;6.67;4.97;;;10.50;93.80;;;;;;2099097;28;20206;-62
2021/09/05 03:28:44;;;;;;;8.33;4.57;;;10.50;93.90;;;;;;2099053;28;20661;-66
2021/09/05 03:29:45;;;;;;;6.77;4.57;;;10.50;94.00;;;;;;2098766;28;20179;-64
2021/09/05 03:30:46;;;;;;;9.17;5.80;;;10.50;94.00;;;;;;2099060;28;20184;-64
2021/09/05 03:31:47;;;;;;;5.57;3.97;;;10.50;94.00;;;;;;2098843;28;20206;-64
2021/09/05 03:32:47;;;;;;;7.20;4.47;;;10.50;93.90;;;;;;2099024;28;20190;-64
2021/09/05 03:33:48;;;;;;;7.00;4.60;;;10.50;93.80;;;;;;2106602;28;20187;-64
2021/09/05 03:34:49;;;;;;;7.17;4.90;;;10.50;93.70;;;;;;2106743;28;20713;-66
2021/09/05 03:35:50;;;;;;;6.33;4.77;;;10.60;93.80;;;;;;2099015;28;20266;-64
2021/09/05 03:36:50;;;;;;;6.10;4.33;;;10.60;93.80;;;;;;2098467;28;20605;-64
2021/09/05 03:37:51;;;;;;;8.13;4.60;;;10.60;93.90;;;;;;2098407;28;20262;-62
2021/09/05 03:38:51;;;;;;;6.67;4.40;;;10.60;93.90;;;;;;2098969;28;20588;-63
2021/09/05 03:39:52;;;;;;;7.37;4.87;;;10.60;93.90;;;;;;2106564;28;20232;-63
2021/09/05 03:40:53;;;;;;;5.77;4.13;;;10.60;93.80;;;;;;2106782;28;20226;-65
2021/09/05 03:41:53;;;;;;;6.43;4.13;;;10.60;93.80;;;;;;2098693;28;20585;-63
2021/09/05 03:42:54;;;;;;;7.07;5.27;;;10.60;93.90;;;;;;2099067;28;20179;-64
2021/09/05 03:43:55;;;;;;;6.03;4.20;;;10.60;93.80;;;;;;2098292;28;20179;-64
2021/09/05 03:44:56;;;;;;;6.03;3.97;;;10.60;93.80;;;;;;2090033;28;20881;-63
2021/09/05 03:45:56;;;;;;;7.70;4.10;;;10.60;93.80;;;;;;2098141;28;20178;-64
2021/09/05 03:46:58;;;;;;;5.83;4.30;;;10.60;93.70;;;;;;2098113;28;20182;-66
2021/09/05 03:47:59;;;;;;;7.32;4.30;;;10.60;94.10;;;;;;2098241;28;20179;-64
2021/09/05 03:48:59;;;;;;;5.87;4.53;;;10.60;93.60;;;;;;2097776;28;20545;-66
2021/09/05 03:50:00;;;;;;;6.63;4.10;;;10.60;93.60;;;;;;2098194;28;20258;-64
2021/09/05 03:51:01;;;;;;;6.00;4.03;;;10.60;93.60;;;;;;2098633;28;20282;-64
2021/09/05 03:52:02;;;;;;;6.43;4.10;;;10.50;93.60;;;;;;2098767;28;20231;-65
2021/09/05 03:53:02;;;;;;;6.50;4.00;;;10.60;93.60;;;;;;2098740;28;20675;-64
2021/09/05 03:54:03;;;;;;;5.97;3.60;;;10.50;93.60;;;;;;2098755;28;20182;-65
2021/09/05 03:55:05;;;;;;;5.47;4.07;;;10.50;93.60;;;;;;2098664;28;20182;-64
2021/09/05 03:56:06;;;;;;;6.45;3.78;;;10.50;93.60;;;;;;2098669;28;20186;-64
2021/09/05 03:57:07;;;;;;;6.47;4.07;;;10.50;93.60;;;;;;2098645;28;20183;-64
2021/09/05 03:58:08;;;;;;;6.83;4.77;;;10.40;93.60;;;;;;2098649;28;20611;-64
2021/09/05 03:59:08;;;;;;;4.57;3.63;;;10.50;93.70;;;;;;2098299;28;20214;-63
2021/09/05 04:00:10;;;;;;;5.73;4.43;;;10.50;93.70;;;;;;2098674;28;20175;-64
2021/09/05 04:01:10;;;;;;;6.70;4.07;;;10.40;93.60;;;;;;2097733;28;20194;-65
2021/09/05 04:02:11;;;;;;;7.33;4.17;;;10.50;93.70;;;;;;2098088;28;20178;-64
2021/09/05 04:03:12;;;;;;;7.80;4.50;;;10.40;93.70;;;;;;2098572;28;20183;-63
2021/09/05 04:04:13;;;;;;;6.23;4.07;;;10.40;93.70;;;;;;2098713;28;20662;-65
2021/09/05 04:05:14;;;;;;;6.60;4.43;;;10.40;93.60;;;;;;2098548;28;20615;-64
2021/09/05 04:06:15;;;;;;;5.90;4.00;;;10.40;93.50;;;;;;2098599;28;20183;-63
2021/09/05 04:07:18;;;;;;;6.10;3.93;;;10.40;93.50;;;;;;2098567;28;20183;-65
2021/09/05 04:08:29;;;;;;;5.90;3.95;;;10.40;93.50;;;;;;2098747;28;20426;-63
2021/09/05 04:10:50;;;;;;;6.03;4.15;;;10.40;93.40;;;;;;2098639;28;20595;-65
2021/09/05 04:11:50;;;;;;;7.67;4.90;;;10.40;93.50;;;;;;2098471;28;20223;-66
2021/09/05 04:12:51;;;;;;;6.40;4.77;;;10.40;93.70;;;;;;2098622;28;20593;-66
2021/09/05 04:13:52;;;;;;;6.63;4.43;;;10.40;93.80;;;;;;2098496;28;20187;-66
2021/09/05 04:14:52;;;;;;;6.53;4.60;;;10.30;94.40;;;;;;2098549;28;20186;-66
2021/09/05 04:15:53;;;;;;;7.60;4.73;;;10.40;94.00;;;;;;2098458;28;20643;-66
2021/09/05 04:16:54;;;;;;;6.00;4.20;;;10.30;94.00;;;;;;2098557;28;20665;-66
2021/09/05 04:17:55;;;;;;;9.03;4.80;;;10.30;94.10;;;;;;2098409;28;20258;-66
2021/09/05 04:18:56;;;;;;;6.88;4.25;;;10.40;94.10;;;;;;2097625;28;20187;-66
2021/09/05 04:19:57;;;;;;;8.23;4.70;;;10.40;94.10;;;;;;2097838;28;20187;-64
2021/09/05 04:20:58;;;;;;;8.00;4.85;;;10.40;94.10;;;;;;2098474;28;20202;-64
2021/09/05 04:21:58;;;;;;;5.63;3.93;;;10.40;94.00;;;;;;2098315;28;20627;-66
2021/09/05 04:22:59;;;;;;;7.27;4.17;;;10.40;93.90;;;;;;2098533;28;20175;-66
2021/09/05 04:24:00;;;;;;;6.60;4.57;;;10.40;93.70;;;;;;2098476;28;20187;-64
2021/09/05 04:25:02;;;;;;;6.03;4.57;;;10.30;93.70;;;;;;2098249;28;20171;-65
2021/09/05 04:26:02;;;;;;;5.97;4.10;;;10.30;93.80;;;;;;2098032;28;20572;-65
2021/09/05 04:27:03;;;;;;;6.90;4.10;;;10.30;93.80;;;;;;2098517;28;20187;-66
2021/09/05 04:28:05;;;;;;;7.63;4.40;;;10.30;94.30;;;;;;2097800;28;20262;-66
2021/09/05 04:29:06;;;;;;;9.20;5.85;;;10.30;93.80;;;;;;2097684;28;20431;-65
2021/09/05 04:30:10;;;;;;;7.43;4.00;;;10.30;93.70;;;;;;2098333;28;20661;-64
2021/09/05 04:31:10;;;;;;;7.85;4.65;;;10.30;93.70;;;;;;2098457;28;20179;-64
2021/09/05 04:32:11;;;;;;;6.00;4.00;;;10.30;93.60;;;;;;2098328;28;20539;-65
2021/09/05 04:33:12;;;;;;;7.53;4.60;;;10.30;93.60;;;;;;2098395;28;20199;-64
2021/09/05 04:34:13;;;;;;;9.07;4.10;;;10.30;93.60;;;;;;2098385;28;20179;-66
2021/09/05 04:35:13;;;;;;;6.37;4.17;;;10.40;93.60;;;;;;2098397;28;20183;-65
2021/09/05 04:36:14;;;;;;;5.97;4.20;;;10.30;93.60;;;;;;2098306;28;20179;-66
2021/09/05 04:37:20;;;;;;;6.50;3.90;;;10.30;93.60;;;;;;2098367;28;20175;-65
2021/09/05 04:38:21;;;;;;;6.50;4.22;;;10.30;93.60;;;;;;2098316;28;20166;-64
2021/09/05 04:39:21;;;;;;;6.20;4.10;;;10.30;93.70;;;;;;2098142;28;20174;-64
2021/09/05 04:40:22;;;;;;;7.20;4.43;;;10.30;93.70;;;;;;2097658;28;20164;-65
2021/09/05 04:41:23;;;;;;;8.77;4.50;;;10.30;93.80;;;;;;2097656;28;20607;-66
2021/09/05 04:42:24;;;;;;;7.23;4.40;;;10.30;94.00;;;;;;2098286;28;20176;-64
2021/09/05 04:43:25;;;;;;;6.53;4.70;;;10.30;94.10;;;;;;2098329;28;20176;-66
2021/09/05 04:44:25;;;;;;;6.70;4.27;;;10.30;94.10;;;;;;2098281;28;20183;-61
2021/09/05 04:45:26;;;;;;;9.03;4.50;;;10.30;94.00;;;;;;2098396;28;20269;-65
2021/09/05 04:46:27;;;;;;;6.23;4.27;;;10.30;94.00;;;;;;2098334;28;20236;-65
2021/09/05 04:47:27;;;;;;;6.60;4.30;;;10.30;94.10;;;;;;2098326;28;20182;-63
2021/09/05 04:48:28;;;;;;;5.97;4.03;;;10.30;94.70;;;;;;2098192;28;20198;-64
2021/09/05 04:49:29;;;;;;;6.93;4.83;;;10.30;94.10;;;;;;2098054;28;20171;-64
2021/09/05 04:50:29;;;;;;;6.60;4.40;;;10.40;94.20;;;;;;2098178;28;20198;-65
2021/09/05 04:51:30;;;;;;;7.03;4.23;;;10.30;94.20;;;;;;2098157;28;20199;-65
2021/09/05 04:52:31;;;;;;;5.93;3.77;;;10.40;94.20;;;;;;2098272;28;20236;-66
2021/09/05 04:53:32;;;;;;;5.53;4.03;;;10.30;94.10;;;;;;2098177;28;20182;-64
2021/09/05 04:54:34;;;;;;;5.97;4.20;;;10.30;94.00;;;;;;2098251;28;20185;-64
2021/09/05 04:55:35;;;;;;;5.55;3.90;;;10.30;94.30;;;;;;2097508;28;20186;-66
2021/09/05 04:56:35;;;;;;;6.50;4.23;;;10.30;93.80;;;;;;2097639;28;20178;-65
2021/09/05 04:57:36;;;;;;;8.17;4.53;;;10.30;93.90;;;;;;2098101;28;20179;-64
2021/09/05 04:58:37;;;;;;;7.47;4.50;;;10.30;94.00;;;;;;2098288;28;20183;-65
2021/09/05 04:59:37;;;;;;;8.43;4.20;;;10.30;94.00;;;;;;2097888;28;20189;-64
2021/09/05 05:00:38;;;;;;;6.37;4.30;;;10.30;94.00;;;;;;2098226;28;20254;-65
2021/09/05 05:01:39;;;;;;;6.47;4.37;;;10.30;93.90;;;;;;2097994;28;20208;-64
2021/09/05 05:02:39;;;;;;;7.00;4.47;;;10.40;93.90;;;;;;2098166;28;20270;-64
2021/09/05 05:03:40;;;;;;;7.80;4.00;;;10.40;93.80;;;;;;2098065;28;20205;-64
2021/09/05 05:04:41;;;;;;;6.57;4.10;;;10.40;93.80;;;;;;2098213;28;20273;-65
2021/09/05 05:05:41;;;;;;;8.10;4.10;;;10.40;93.90;;;;;;2098116;28;20236;-65
2021/09/05 05:06:43;;;;;;;4.90;3.97;;;10.40;93.90;;;;;;2098206;28;20649;-63
2021/09/05 05:07:43;;;;;;;6.70;4.28;;;10.40;93.90;;;;;;2098099;28;20175;-63
2021/09/05 05:08:44;;;;;;;5.40;3.60;;;10.40;93.80;;;;;;2098158;28;20233;-63
2021/09/05 05:09:45;;;;;;;5.80;4.33;;;10.40;93.70;;;;;;2097990;28;20191;-64
2021/09/05 05:10:45;;;;;;;6.03;3.97;;;10.40;93.70;;;;;;2098235;28;20186;-65
2021/09/05 05:11:46;;;;;;;6.00;4.30;;;10.40;93.70;;;;;;2098028;28;20568;-64
2021/09/05 05:12:47;;;;;;;6.23;3.93;;;10.40;93.70;;;;;;2098143;28;20202;-64
2021/09/05 05:13:48;;;;;;;4.80;3.47;;;10.40;93.70;;;;;;2098095;28;20232;-62
2021/09/05 05:14:48;;;;;;;6.05;3.85;;;10.50;93.60;;;;;;2098120;28;20552;-63
2021/09/05 05:15:49;;;;;;;6.17;3.57;;;10.50;93.40;;;;;;2098057;28;20183;-66
2021/09/05 05:16:50;;;;;;;6.07;3.73;;;10.50;93.30;;;;;;2097439;28;20262;-64
2021/09/05 05:17:50;;;;;;;6.03;4.33;;;10.40;93.30;;;;;;2097523;28;20741;-63
2021/09/05 05:18:51;;;;;;;7.27;4.60;;;10.40;93.30;;;;;;2098048;28;20186;-65
2021/09/05 05:19:52;;;;;;;7.50;4.27;;;10.50;93.30;;;;;;2098052;28;20209;-62